Time;durP1;ratioP1;P1;durP2;ratioP2;P2;SDS_P1;SDS_P2;PMS_P1;PMS_P2;Temp;Humidity;BMP_temperature;BMP_pressure;BME280_temperature;BME280_humidity;BME280_pressure;Samples;Min_cycle;Max_cycle;Signal;HPM_P1;HPM_P2
2021/09/18 00:00:56;;;;;;;6.85;3.40;;;14.60;99.90;;;;;;5095517;28;20521;-79
2021/09/18 00:03:22;;;;;;;7.70;3.08;;;14.50;99.90;;;;;;5096932;28;20040;-79
2021/09/18 00:05:48;;;;;;;9.10;3.45;;;14.60;99.90;;;;;;5096577;28;20081;-79
2021/09/18 00:08:14;;;;;;;9.30;3.88;;;14.50;99.90;;;;;;5096788;28;20066;-79
2021/09/18 00:10:40;;;;;;;7.80;3.28;;;14.50;99.90;;;;;;5096512;28;20050;-79
2021/09/18 00:13:06;;;;;;;8.63;3.38;;;14.50;99.90;;;;;;5096729;28;20044;-79
2021/09/18 00:15:32;;;;;;;7.70;3.40;;;14.50;99.90;;;;;;5096530;28;20036;-79
2021/09/18 00:17:59;;;;;;;6.15;3.25;;;14.30;99.90;;;;;;5095465;28;20032;-79
2021/09/18 00:20:25;;;;;;;9.98;3.30;;;14.40;99.90;;;;;;5096609;28;20040;-79
2021/09/18 00:22:51;;;;;;;8.20;3.22;;;14.50;99.90;;;;;;5096541;28;20044;-79
2021/09/18 00:25:17;;;;;;;7.20;3.30;;;14.50;99.90;;;;;;5096555;28;20437;-79
2021/09/18 00:27:42;;;;;;;8.32;3.47;;;14.40;99.90;;;;;;5096479;28;20135;-79
2021/09/18 00:30:09;;;;;;;6.63;3.50;;;14.40;99.90;;;;;;5094915;28;20126;-79
2021/09/18 00:32:34;;;;;;;5.95;3.70;;;14.40;99.90;;;;;;5096123;28;20072;-78
2021/09/18 00:35:00;;;;;;;6.05;3.40;;;14.40;99.90;;;;;;5095041;28;20483;-79
2021/09/18 00:37:26;;;;;;;7.70;3.67;;;14.40;99.90;;;;;;5096415;28;20130;-79
2021/09/18 00:39:52;;;;;;;7.60;3.20;;;14.40;99.90;;;;;;5096059;28;20074;-79
2021/09/18 00:42:18;;;;;;;7.05;3.40;;;14.30;99.90;;;;;;5096014;28;20042;-79
2021/09/18 00:44:44;;;;;;;6.53;3.67;;;14.30;99.90;;;;;;5096409;28;20089;-79
2021/09/18 00:47:09;;;;;;;7.13;3.78;;;14.30;99.90;;;;;;5095933;28;20047;-79
2021/09/18 00:49:35;;;;;;;8.85;3.20;;;14.30;99.90;;;;;;5096055;28;20067;-79
2021/09/18 00:52:01;;;;;;;8.50;3.50;;;14.30;99.90;;;;;;5096017;28;20043;-79
2021/09/18 00:54:28;;;;;;;8.52;3.20;;;14.30;99.90;;;;;;5096272;28;20047;-79
2021/09/18 00:56:54;;;;;;;5.95;3.60;;;14.20;99.90;;;;;;5094370;28;20067;-79
2021/09/18 00:59:21;;;;;;;6.57;4.07;;;14.10;99.90;;;;;;5095873;28;20043;-79
2021/09/18 01:01:47;;;;;;;8.25;3.38;;;14.20;99.90;;;;;;5095752;28;20040;-79
2021/09/18 01:04:13;;;;;;;6.75;3.53;;;14.20;99.90;;;;;;5096079;28;20036;-79
2021/09/18 01:06:39;;;;;;;8.23;3.20;;;14.20;99.90;;;;;;5095981;28;20058;-79
2021/09/18 01:09:05;;;;;;;6.50;3.40;;;14.20;99.90;;;;;;5094484;28;20116;-79
2021/09/18 01:11:31;;;;;;;5.00;3.08;;;14.20;99.90;;;;;;5095629;28;20178;-79
2021/09/18 01:13:57;;;;;;;5.95;3.10;;;14.10;99.90;;;;;;5096490;28;20435;-79
2021/09/18 01:16:24;;;;;;;6.35;3.85;;;14.10;99.90;;;;;;5095499;28;20170;-79
2021/09/18 01:18:50;;;;;;;7.68;3.50;;;14.00;99.90;;;;;;5095356;28;20066;-79
2021/09/18 01:21:17;;;;;;;5.25;3.30;;;14.00;99.90;;;;;;5095493;28;20101;-79
2021/09/18 01:23:43;;;;;;;5.25;3.33;;;14.00;99.90;;;;;;5096022;28;20115;-78
2021/09/18 01:26:09;;;;;;;6.38;3.08;;;14.00;99.90;;;;;;5095636;28;20155;-79
2021/09/18 01:28:40;;;;;;;8.75;3.40;;;14.00;99.90;;;;;;5094519;28;20077;-79
2021/09/18 01:31:07;;;;;;;6.43;3.60;;;13.90;99.90;;;;;;5095667;28;20040;-79
2021/09/18 01:33:33;;;;;;;8.65;3.75;;;14.00;99.90;;;;;;5095270;28;20039;-79
2021/09/18 01:35:59;;;;;;;4.78;3.28;;;14.00;99.90;;;;;;5095222;28;20036;-79
2021/09/18 01:38:25;;;;;;;3.80;3.45;;;13.90;99.90;;;;;;5095644;28;20043;-79
2021/09/18 01:40:51;;;;;;;7.63;3.53;;;14.00;99.90;;;;;;5095556;28;20371;-79
2021/09/18 01:43:17;;;;;;;5.68;3.30;;;14.00;99.90;;;;;;5095377;28;20047;-79
2021/09/18 01:45:43;;;;;;;11.23;4.00;;;14.00;99.90;;;;;;5095186;28;20040;-79
2021/09/18 01:48:12;;;;;;;7.72;3.42;;;14.00;99.90;;;;;;5094983;28;20054;-78
2021/09/18 01:50:48;;;;;;;10.55;3.53;;;14.00;99.90;;;;;;5095289;28;20040;-79
2021/09/18 01:53:16;;;;;;;3.90;3.45;;;14.00;99.90;;;;;;5094488;28;20035;-79
2021/09/18 01:55:43;;;;;;;5.78;3.40;;;14.00;99.90;;;;;;5094899;28;20093;-79
2021/09/18 01:58:10;;;;;;;5.53;3.80;;;13.90;99.90;;;;;;5095193;28;20179;-79
2021/09/18 02:00:47;;;;;;;9.95;3.53;;;13.90;99.90;;;;;;5094989;28;20063;-78
2021/09/18 02:03:13;;;;;;;6.20;3.28;;;13.80;99.90;;;;;;5095165;28;20055;-79
2021/09/18 02:05:39;;;;;;;4.97;3.40;;;13.90;99.90;;;;;;5094937;28;20086;-79
2021/09/18 02:08:05;;;;;;;4.13;2.95;;;13.80;99.90;;;;;;5094358;28;20044;-79
2021/09/18 02:10:32;;;;;;;3.90;3.38;;;13.80;99.90;;;;;;5094733;28;20044;-79
2021/09/18 02:13:03;;;;;;;5.30;3.78;;;13.80;99.90;;;;;;5094443;28;20063;-79
2021/09/18 02:15:29;;;;;;;4.95;3.72;;;13.90;99.90;;;;;;5094441;28;20040;-79
2021/09/18 02:17:55;;;;;;;6.88;3.55;;;13.80;99.90;;;;;;5094382;28;20059;-78
2021/09/18 02:20:23;;;;;;;4.90;3.38;;;13.80;99.90;;;;;;5094617;28;20044;-79
2021/09/18 02:22:50;;;;;;;5.88;3.65;;;13.80;99.90;;;;;;5094300;28;20109;-79
2021/09/18 02:25:16;;;;;;;7.47;3.88;;;13.90;99.90;;;;;;5094466;28;20079;-79
2021/09/18 02:27:43;;;;;;;11.20;3.92;;;13.80;99.90;;;;;;5094519;28;20043;-79
2021/09/18 02:30:16;;;;;;;6.18;3.17;;;13.80;99.90;;;;;;5094662;28;20090;-79
2021/09/18 02:32:42;;;;;;;8.70;3.50;;;13.90;99.90;;;;;;5094352;28;20032;-79
2021/09/18 02:35:11;;;;;;;8.77;3.17;;;13.90;99.90;;;;;;5095067;28;20040;-79
2021/09/18 02:37:37;;;;;;;4.40;2.85;;;13.90;99.90;;;;;;5092633;28;20121;-79
2021/09/18 02:40:05;;;;;;;7.63;3.22;;;13.90;99.90;;;;;;5094447;28;20040;-79
2021/09/18 02:42:31;;;;;;;13.27;3.50;;;13.90;99.90;;;;;;5094418;28;20032;-79
2021/09/18 02:44:57;;;;;;;6.25;3.85;;;13.80;99.90;;;;;;5094210;28;20433;-78
2021/09/18 02:47:23;;;;;;;6.63;3.42;;;13.80;99.90;;;;;;5094370;28;20048;-78
2021/09/18 02:49:49;;;;;;;9.05;3.55;;;13.70;99.90;;;;;;5093050;28;20067;-78
2021/09/18 02:52:15;;;;;;;9.50;4.00;;;13.70;99.90;;;;;;5094051;28;20105;-78
2021/09/18 02:54:40;;;;;;;6.00;3.38;;;13.70;99.90;;;;;;5094440;28;20117;-79
2021/09/18 02:57:06;;;;;;;5.28;3.10;;;13.80;99.90;;;;;;5093284;28;20127;-79
2021/09/18 02:59:32;;;;;;;8.38;3.20;;;13.80;99.90;;;;;;5094249;28;20040;-79
2021/09/18 03:01:58;;;;;;;5.78;3.35;;;13.80;99.90;;;;;;5093780;28;20036;-79
2021/09/18 03:04:24;;;;;;;4.22;3.40;;;13.80;99.90;;;;;;5094235;28;20513;-79
2021/09/18 03:06:49;;;;;;;5.45;3.33;;;13.80;99.90;;;;;;5098174;28;20062;-79
2021/09/18 03:09:15;;;;;;;3.90;3.30;;;14.00;99.90;;;;;;5097998;28;20482;-78
2021/09/18 03:11:41;;;;;;;4.85;3.30;;;14.10;99.90;;;;;;5098259;28;20047;-79
2021/09/18 03:14:07;;;;;;;7.85;3.40;;;14.10;99.90;;;;;;5097968;28;20114;-78
2021/09/18 03:16:33;;;;;;;3.67;3.30;;;14.20;99.90;;;;;;5097609;28;20048;-78
2021/09/18 03:18:59;;;;;;;4.70;3.30;;;14.20;99.90;;;;;;5097935;28;20047;-79
2021/09/18 03:21:24;;;;;;;4.93;3.53;;;14.00;99.90;;;;;;5098034;28;20608;-79
2021/09/18 03:23:50;;;;;;;3.78;3.38;;;14.10;99.90;;;;;;5097753;28;20494;-79
2021/09/18 03:26:16;;;;;;;6.28;3.50;;;14.00;99.90;;;;;;5097912;28;20040;-79
2021/09/18 03:28:42;;;;;;;5.47;3.30;;;13.90;99.90;;;;;;5098017;28;20085;-79
2021/09/18 03:31:08;;;;;;;6.53;3.53;;;13.90;99.90;;;;;;5097755;28;20039;-79
2021/09/18 03:33:34;;;;;;;4.40;3.47;;;13.90;99.90;;;;;;5098124;28;20035;-79
2021/09/18 03:35:59;;;;;;;3.30;3.00;;;13.90;99.90;;;;;;5096497;28;20036;-79
2021/09/18 03:38:25;;;;;;;5.60;3.28;;;13.80;99.90;;;;;;5097678;28;20090;-79
2021/09/18 03:40:51;;;;;;;5.18;3.05;;;13.80;99.90;;;;;;5097714;28;20084;-79
2021/09/18 03:43:17;;;;;;;6.35;3.15;;;13.80;99.90;;;;;;5097660;28;20119;-79
2021/09/18 03:45:43;;;;;;;7.20;3.00;;;13.90;99.90;;;;;;5097510;28;20043;-78
2021/09/18 03:48:08;;;;;;;5.40;3.20;;;13.90;99.90;;;;;;5097590;28;20474;-79
2021/09/18 03:50:34;;;;;;;9.52;3.75;;;13.90;99.90;;;;;;5097542;28;20040;-78
2021/09/18 03:53:00;;;;;;;5.13;3.50;;;13.80;99.90;;;;;;5097242;28;20398;-78
2021/09/18 03:55:26;;;;;;;6.57;3.28;;;14.00;99.90;;;;;;5097108;28;20039;-78
2021/09/18 03:57:52;;;;;;;6.63;3.42;;;14.00;99.90;;;;;;5095768;28;20036;-79
2021/09/18 04:00:17;;;;;;;5.13;3.25;;;14.00;99.90;;;;;;5097462;28;20032;-79
2021/09/18 04:02:43;;;;;;;7.68;3.00;;;14.00;99.90;;;;;;5097451;28;20039;-79
2021/09/18 04:05:09;;;;;;;3.10;2.90;;;14.10;99.90;;;;;;5097236;28;20062;-79
2021/09/18 04:07:35;;;;;;;4.25;3.42;;;14.20;99.90;;;;;;5096543;28;20040;-79
2021/09/18 04:10:01;;;;;;;4.25;3.38;;;14.10;99.90;;;;;;5096832;28;20065;-79
2021/09/18 04:12:27;;;;;;;3.70;3.25;;;14.10;99.90;;;;;;5095524;28;20054;-79
2021/09/18 04:14:53;;;;;;;7.15;3.85;;;14.10;99.90;;;;;;5096337;28;20031;-79
2021/09/18 04:17:18;;;;;;;6.75;3.30;;;14.10;99.90;;;;;;5094709;28;20040;-78
2021/09/18 04:19:44;;;;;;;7.80;3.47;;;14.10;99.90;;;;;;5095940;28;20048;-79
2021/09/18 04:22:10;;;;;;;5.60;3.63;;;14.10;99.90;;;;;;5096335;28;20497;-79
2021/09/18 04:24:37;;;;;;;5.63;3.67;;;14.00;99.90;;;;;;5096620;28;20043;-79
2021/09/18 04:27:03;;;;;;;7.18;3.67;;;14.00;99.90;;;;;;5096799;28;20040;-79
2021/09/18 04:29:31;;;;;;;5.88;3.25;;;13.90;99.90;;;;;;5096775;28;20063;-79
2021/09/18 04:31:57;;;;;;;9.32;3.78;;;13.90;99.90;;;;;;5096193;28;20043;-79
2021/09/18 04:34:23;;;;;;;7.43;3.78;;;13.90;99.90;;;;;;5094832;28;20043;-79
2021/09/18 04:36:49;;;;;;;3.88;3.38;;;13.90;99.90;;;;;;5095910;28;20127;-78
2021/09/18 04:39:15;;;;;;;3.92;3.25;;;13.80;99.90;;;;;;5096287;28;20040;-79
2021/09/18 04:41:40;;;;;;;3.72;3.30;;;13.90;99.90;;;;;;5095957;28;20115;-79
2021/09/18 04:44:06;;;;;;;7.65;3.13;;;13.90;99.90;;;;;;5096217;28;20043;-79
2021/09/18 04:46:32;;;;;;;5.25;4.15;;;14.00;99.90;;;;;;5095871;28;20105;-79
2021/09/18 04:48:58;;;;;;;4.38;3.72;;;14.00;99.90;;;;;;5096736;28;20040;-79
2021/09/18 04:51:24;;;;;;;3.35;3.05;;;14.10;99.90;;;;;;5096276;28;20115;-79
2021/09/18 04:53:49;;;;;;;5.32;3.88;;;14.10;99.90;;;;;;5095714;28;20498;-79
2021/09/18 04:56:15;;;;;;;5.63;3.30;;;14.00;99.90;;;;;;5095964;28;20035;-79
2021/09/18 04:58:41;;;;;;;5.95;3.42;;;14.00;99.90;;;;;;5095772;28;20403;-79
2021/09/18 05:01:07;;;;;;;4.75;3.38;;;14.00;99.90;;;;;;5095706;28;20097;-79
2021/09/18 05:03:33;;;;;;;9.52;3.50;;;14.00;99.90;;;;;;5095846;28;20487;-79
2021/09/18 05:05:58;;;;;;;5.43;3.55;;;14.00;99.90;;;;;;5095518;28;20055;-79
2021/09/18 05:08:24;;;;;;;8.30;3.30;;;14.00;99.90;;;;;;5095452;28;20044;-79
2021/09/18 05:10:50;;;;;;;5.40;3.20;;;13.90;99.90;;;;;;5095650;28;20506;-79
2021/09/18 05:13:16;;;;;;;4.82;3.63;;;13.90;99.90;;;;;;5095365;28;20130;-79
2021/09/18 05:15:42;;;;;;;5.88;3.28;;;13.80;99.90;;;;;;5095511;28;20459;-79
2021/09/18 05:18:07;;;;;;;6.07;3.50;;;13.80;99.90;;;;;;5095643;28;20050;-79
2021/09/18 05:20:33;;;;;;;8.52;3.58;;;13.80;99.90;;;;;;5095212;28;20552;-79
2021/09/18 05:22:59;;;;;;;5.85;3.60;;;13.70;99.90;;;;;;5095489;28;20074;-79
2021/09/18 05:25:25;;;;;;;4.63;3.70;;;13.80;99.90;;;;;;5095434;28;20036;-79
2021/09/18 05:27:51;;;;;;;5.18;3.28;;;13.80;99.90;;;;;;5094595;28;20044;-79
2021/09/18 05:30:17;;;;;;;4.90;3.33;;;13.70;99.90;;;;;;5094913;28;20113;-79
2021/09/18 05:32:43;;;;;;;8.23;3.88;;;13.70;99.90;;;;;;5095297;28;20545;-79
2021/09/18 05:35:09;;;;;;;4.00;3.60;;;13.80;99.90;;;;;;5095253;28;20395;-79
2021/09/18 05:37:35;;;;;;;4.72;3.10;;;13.80;99.90;;;;;;5095399;28;20181;-79
2021/09/18 05:40:00;;;;;;;5.63;3.30;;;13.80;99.90;;;;;;5095403;28;20070;-79
2021/09/18 05:42:26;;;;;;;5.28;3.47;;;13.90;99.90;;;;;;5095129;28;20042;-79
2021/09/18 05:44:52;;;;;;;5.28;3.70;;;14.00;99.90;;;;;;5094896;28;20560;-79
2021/09/18 05:47:18;;;;;;;5.72;3.60;;;13.90;99.90;;;;;;5095053;28;20040;-79
2021/09/18 05:49:44;;;;;;;7.30;3.63;;;14.00;99.90;;;;;;5093689;28;20052;-79
2021/09/18 05:52:10;;;;;;;6.30;3.10;;;14.10;99.90;;;;;;5094972;28;20040;-79
2021/09/18 05:54:36;;;;;;;4.93;3.70;;;14.10;99.90;;;;;;5094670;28;20043;-79
2021/09/18 05:57:02;;;;;;;4.85;3.42;;;14.20;99.90;;;;;;5094793;28;20568;-79
2021/09/18 05:59:28;;;;;;;5.80;3.60;;;14.30;99.90;;;;;;5094573;28;20491;-79
2021/09/18 06:01:54;;;;;;;8.48;3.53;;;14.30;99.90;;;;;;5094849;28;20131;-79
2021/09/18 06:04:20;;;;;;;5.80;3.85;;;14.30;99.90;;;;;;5095350;28;20364;-79
2021/09/18 06:06:46;;;;;;;9.73;4.07;;;14.30;99.90;;;;;;5094982;28;20040;-79
2021/09/18 06:09:12;;;;;;;4.68;3.58;;;14.30;99.90;;;;;;5094770;28;20043;-79
2021/09/18 06:11:37;;;;;;;4.53;3.42;;;14.40;99.90;;;;;;5095002;28;20471;-79
2021/09/18 06:14:03;;;;;;;5.30;3.58;;;14.50;99.90;;;;;;5093075;28;20044;-79
2021/09/18 06:16:29;;;;;;;7.07;3.70;;;14.50;99.90;;;;;;5092971;28;20738;-79
2021/09/18 06:18:55;;;;;;;9.20;3.50;;;14.60;99.90;;;;;;5093057;28;20043;-79
2021/09/18 06:21:22;;;;;;;7.75;3.65;;;14.70;99.90;;;;;;5092863;28;20036;-79
2021/09/18 06:23:48;;;;;;;5.35;3.40;;;14.70;99.90;;;;;;5093026;28;20387;-79
2021/09/18 06:26:16;;;;;;;5.00;3.20;;;14.80;99.90;;;;;;5094489;28;20036;-79
2021/09/18 06:28:43;;;;;;;4.43;3.63;;;14.80;99.90;;;;;;5092880;28;20495;-79
2021/09/18 06:31:09;;;;;;;6.55;3.97;;;15.00;99.90;;;;;;5092924;28;20036;-79
2021/09/18 06:33:34;;;;;;;5.60;3.70;;;15.00;99.90;;;;;;5092906;28;20066;-79
2021/09/18 06:36:00;;;;;;;6.57;3.55;;;14.90;99.90;;;;;;5091879;28;20055;-79
2021/09/18 06:38:26;;;;;;;5.90;3.40;;;15.00;99.90;;;;;;5092955;28;20047;-79
2021/09/18 06:40:54;;;;;;;5.95;3.15;;;15.00;99.90;;;;;;5097194;28;20048;-79
2021/09/18 06:43:21;;;;;;;4.65;3.67;;;15.00;99.90;;;;;;5091221;28;20048;-79
2021/09/18 06:45:47;;;;;;;5.25;3.72;;;15.10;99.90;;;;;;5092115;28;20046;-79
2021/09/18 06:48:13;;;;;;;9.10;3.60;;;15.00;99.90;;;;;;5093641;28;20085;-80
2021/09/18 06:50:40;;;;;;;4.82;3.72;;;15.10;99.90;;;;;;5095538;28;20028;-80
2021/09/18 06:53:07;;;;;;;5.72;3.60;;;15.10;99.90;;;;;;5096800;28;20482;-79
2021/09/18 06:55:34;;;;;;;5.22;3.45;;;15.20;99.90;;;;;;5092690;28;20498;-80
2021/09/18 06:58:00;;;;;;;4.93;3.55;;;15.30;99.90;;;;;;5096457;28;20048;-80
2021/09/18 07:00:30;;;;;;;8.43;3.58;;;15.30;99.90;;;;;;5096174;28;20040;-80
2021/09/18 07:02:56;;;;;;;5.93;3.78;;;15.40;99.90;;;;;;5092921;28;20045;-80
2021/09/18 07:05:22;;;;;;;4.55;4.05;;;15.30;99.90;;;;;;5098883;28;20055;-80
2021/09/18 07:07:48;;;;;;;3.72;3.40;;;15.40;99.90;;;;;;5103701;28;20040;-80
2021/09/18 07:10:15;;;;;;;5.18;3.60;;;15.40;99.90;;;;;;5097966;28;20054;-80
2021/09/18 07:12:41;;;;;;;3.55;3.20;;;15.40;99.90;;;;;;5096531;28;20040;-80
2021/09/18 07:15:08;;;;;;;8.13;4.15;;;15.50;99.90;;;;;;5097415;28;20120;-81
2021/09/18 07:17:34;;;;;;;6.05;4.10;;;15.50;99.90;;;;;;5097795;28;20063;-80
2021/09/18 07:20:01;;;;;;;6.35;3.72;;;15.50;99.90;;;;;;5096858;28;20075;-79
2021/09/18 07:22:27;;;;;;;6.45;3.60;;;15.70;99.90;;;;;;5095885;28;20442;-79
2021/09/18 07:24:54;;;;;;;5.07;4.10;;;15.80;99.90;;;;;;5096104;28;20130;-79
2021/09/18 07:27:21;;;;;;;5.28;4.43;;;15.90;99.90;;;;;;5094201;28;20048;-78
2021/09/18 07:29:49;;;;;;;5.57;3.50;;;16.00;99.90;;;;;;5095144;28;20047;-79
2021/09/18 07:32:15;;;;;;;8.05;3.80;;;16.00;99.90;;;;;;5094648;28;20039;-79
2021/09/18 07:34:41;;;;;;;5.90;3.78;;;16.20;99.90;;;;;;5095740;28;20196;-79
2021/09/18 07:37:07;;;;;;;3.60;3.17;;;16.30;99.90;;;;;;5096806;28;20164;-77
2021/09/18 07:39:33;;;;;;;5.30;3.50;;;16.30;99.90;;;;;;5097619;28;20043;-78
2021/09/18 07:41:58;;;;;;;4.97;3.38;;;16.40;99.90;;;;;;5097125;28;20075;-78
2021/09/18 07:44:24;;;;;;;4.55;3.22;;;16.50;99.90;;;;;;5100319;28;20115;-78
2021/09/18 07:46:50;;;;;;;4.97;3.05;;;16.60;99.90;;;;;;5095168;28;20130;-79
2021/09/18 07:49:17;;;;;;;4.72;3.10;;;16.60;99.90;;;;;;5096888;28;20557;-79
2021/09/18 07:51:44;;;;;;;2.80;2.60;;;16.70;99.90;;;;;;5096149;28;20078;-78
2021/09/18 07:54:10;;;;;;;3.83;2.90;;;16.70;96.00;;;;;;5095556;28;20058;-78
2021/09/18 07:56:36;;;;;;;2.92;2.72;;;16.90;91.50;;;;;;5095455;28;20039;-78
2021/09/18 07:59:02;;;;;;;2.60;2.40;;;16.90;98.10;;;;;;5095341;28;20213;-78
2021/09/18 08:01:30;;;;;;;2.90;2.60;;;17.10;94.10;;;;;;5095574;28;20032;-78
2021/09/18 08:04:03;;;;;;;3.58;2.30;;;17.20;70.60;;;;;;5096040;28;20043;-77
2021/09/18 08:06:31;;;;;;;3.58;2.50;;;17.30;68.30;;;;;;5095529;28;20090;-78
2021/09/18 08:08:57;;;;;;;3.53;2.67;;;17.30;61.20;;;;;;5096510;28;20043;-79
2021/09/18 08:11:23;;;;;;;2.80;2.60;;;17.40;67.70;;;;;;5094901;28;20032;-78
2021/09/18 08:13:51;;;;;;;3.60;2.78;;;17.50;48.80;;;;;;5096521;28;20052;-77
2021/09/18 08:16:18;;;;;;;4.38;2.75;;;17.50;32.30;;;;;;5095662;28;20040;-76
2021/09/18 08:18:44;;;;;;;4.07;2.72;;;17.60;33.40;;;;;;5096738;28;20123;-76
2021/09/18 08:21:11;;;;;;;3.30;2.95;;;17.70;47.20;;;;;;5096699;28;20082;-76
2021/09/18 08:23:37;;;;;;;2.45;2.25;;;17.70;32.40;;;;;;5096673;28;20066;-76
2021/09/18 08:26:04;;;;;;;4.13;2.47;;;17.80;25.10;;;;;;5096314;28;20043;-76
2021/09/18 08:28:30;;;;;;;4.85;2.42;;;17.80;25.00;;;;;;5096620;28;20067;-77
2021/09/18 08:30:56;;;;;;;2.25;2.10;;;17.90;26.30;;;;;;5096299;28;20032;-77
2021/09/18 08:33:21;;;;;;;7.72;2.80;;;17.90;12.40;;;;;;5096382;28;20040;-77
2021/09/18 08:35:47;;;;;;;4.18;2.30;;;18.00;29.20;;;;;;5094446;28;20032;-76
2021/09/18 08:38:13;;;;;;;4.65;2.53;;;18.10;16.80;;;;;;5094553;28;20055;-77
2021/09/18 08:40:39;;;;;;;3.97;2.55;;;18.10;12.80;;;;;;5091942;28;20039;-73
2021/09/18 08:43:09;;;;;;;3.13;2.80;;;18.10;14.20;;;;;;5094826;28;20047;-76
2021/09/18 08:45:37;;;;;;;3.33;2.60;;;18.30;15.40;;;;;;5094320;28;20059;-81
2021/09/18 08:48:08;;;;;;;2.65;2.45;;;18.30;9.90;;;;;;5094021;28;20081;-80
2021/09/18 08:50:35;;;;;;;3.83;2.63;;;18.40;12.10;;;;;;5094388;28;20043;-73
2021/09/18 08:53:01;;;;;;;2.92;2.22;;;18.40;4.80;;;;;;5095988;28;20123;-79
2021/09/18 08:55:27;;;;;;;4.25;2.60;;;18.30;9.90;;;;;;5094899;28;20364;-78
2021/09/18 08:57:54;;;;;;;3.55;2.45;;;18.30;2.70;;;;;;5092881;28;20043;-79
2021/09/18 09:00:32;;;;;;;4.60;2.38;;;18.20;1.00;;;;;;5093866;28;20406;-78
2021/09/18 09:03:08;;;;;;;4.07;2.30;;;18.20;1.00;;;;;;5095840;28;20119;-79
2021/09/18 09:05:36;;;;;;;2.75;2.30;;;18.20;1.00;;;;;;5093991;28;20117;-79
2021/09/18 09:08:13;;;;;;;3.33;2.88;;;18.20;1.00;;;;;;5094337;28;20067;-79
2021/09/18 09:10:42;;;;;;;4.88;3.10;;;18.20;1.00;;;;;;5093907;28;20059;-79
2021/09/18 09:13:14;;;;;;;3.22;2.72;;;18.30;5.30;;;;;;5083467;28;20043;-79
2021/09/18 09:15:43;;;;;;;3.13;2.53;;;18.40;1.00;;;;;;5094124;28;20036;-79
2021/09/18 09:18:23;;;;;;;4.57;2.45;;;18.50;1.00;;;;;;5094389;28;20110;-79
2021/09/18 09:21:06;;;;;;;4.97;2.97;;;18.60;1.00;;;;;;5093950;28;20131;-79
2021/09/18 09:23:33;;;;;;;5.25;2.42;;;18.60;1.00;;;;;;5096053;28;20079;-78
2021/09/18 09:26:00;;;;;;;2.50;1.90;;;18.70;1.00;;;;;;5095685;28;20042;-79
2021/09/18 09:28:31;;;;;;;6.45;2.50;;;18.80;1.00;;;;;;5093718;28;20040;-78
2021/09/18 09:31:17;;;;;;;3.00;2.65;;;18.90;3.10;;;;;;5095280;28;20040;-79
2021/09/18 09:34:01;;;;;;;4.07;2.50;;;19.20;1.00;;;;;;5095892;28;20077;-79
2021/09/18 09:36:30;;;;;;;3.15;2.70;;;19.70;1.00;;;;;;5093537;28;20028;-78
2021/09/18 09:39:00;;;;;;;5.93;2.80;;;20.00;1.00;;;;;;5094344;28;20071;-79
2021/09/18 09:41:34;;;;;;;4.28;2.85;;;20.20;1.00;;;;;;5093338;28;20071;-79
2021/09/18 09:44:03;;;;;;;2.55;2.35;;;20.40;1.00;;;;;;5095171;28;20081;-79
2021/09/18 09:46:29;;;;;;;3.30;2.67;;;20.40;1.00;;;;;;5093468;28;20168;-79
2021/09/18 09:49:15;;;;;;;3.22;2.90;;;20.40;1.00;;;;;;5094558;28;20032;-79
2021/09/18 09:51:42;;;;;;;3.55;2.70;;;20.10;1.00;;;;;;5095262;28;20032;-79
2021/09/18 09:54:26;;;;;;;2.83;2.63;;;19.90;1.00;;;;;;5093614;28;20032;-79
2021/09/18 09:57:13;;;;;;;3.78;2.67;;;19.70;1.00;;;;;;5093393;28;20428;-79
2021/09/18 09:59:40;;;;;;;2.90;2.70;;;19.70;1.00;;;;;;5094946;28;20042;-79
2021/09/18 10:02:10;;;;;;;2.53;2.33;;;19.60;1.00;;;;;;5093371;28;20028;-79
2021/09/18 10:04:37;;;;;;;3.20;2.92;;;19.80;1.00;;;;;;5093020;28;20044;-79
2021/09/18 10:07:05;;;;;;;3.05;2.60;;;19.80;1.00;;;;;;5094858;28;20055;-79
2021/09/18 10:09:33;;;;;;;3.30;3.00;;;19.90;1.00;;;;;;5094437;28;20039;-79
2021/09/18 10:11:59;;;;;;;3.97;2.70;;;19.80;1.00;;;;;;5092428;28;20153;-79
2021/09/18 10:14:27;;;;;;;3.25;2.65;;;19.70;1.00;;;;;;5094598;28;20032;-79
2021/09/18 10:16:58;;;;;;;3.70;3.00;;;19.80;1.00;;;;;;5093424;28;20402;-79
2021/09/18 10:25:20;;;;;;;5.50;2.53;;;19.80;1.00;;;;;;5094702;28;20027;-79
2021/09/18 10:28:23;;;;;;;3.20;2.70;;;20.00;1.00;;;;;;5094505;28;20139;-78
2021/09/18 10:30:54;;;;;;;4.05;3.30;;;20.10;1.00;;;;;;5094775;28;20364;-78
2021/09/18 10:33:26;;;;;;;3.50;3.03;;;20.20;1.00;;;;;;5094795;28;20064;-78
2021/09/18 10:36:02;;;;;;;4.32;3.38;;;20.40;1.00;;;;;;5094978;28;20487;-78
2021/09/18 10:38:38;;;;;;;7.63;3.28;;;20.40;1.00;;;;;;5093785;28;20036;-78
2021/09/18 10:41:24;;;;;;;4.45;3.53;;;20.50;1.00;;;;;;5093164;28;20036;-80
2021/09/18 10:44:28;;;;;;;5.25;3.58;;;20.60;1.00;;;;;;5092628;28;20032;-76
2021/09/18 10:46:58;;;;;;;5.95;3.00;;;20.80;1.00;;;;;;5091847;28;20043;-78
2021/09/18 10:49:44;;;;;;;5.10;3.00;;;20.90;1.00;;;;;;5093246;28;20551;-78
2021/09/18 10:52:32;;;;;;;4.60;2.88;;;20.80;1.00;;;;;;5093558;28;20040;-77
2021/09/18 10:55:08;;;;;;;4.40;3.30;;;20.90;1.00;;;;;;5094629;28;20040;-77
2021/09/18 10:57:56;;;;;;;4.32;3.20;;;21.00;1.00;;;;;;5095520;28;20036;-77
2021/09/18 11:00:26;;;;;;;3.30;2.88;;;21.20;1.00;;;;;;5094219;28;20043;-77
2021/09/18 11:02:57;;;;;;;4.45;3.33;;;21.30;1.00;;;;;;5094165;28;20066;-77
2021/09/18 11:05:23;;;;;;;3.45;2.60;;;21.40;1.00;;;;;;5092591;28;20060;-77
2021/09/18 11:08:00;;;;;;;4.80;3.25;;;21.60;1.00;;;;;;5093871;28;20036;-77
2021/09/18 11:10:28;;;;;;;4.10;3.08;;;21.60;1.00;;;;;;5094364;28;20036;-77
2021/09/18 11:13:09;;;;;;;3.72;3.17;;;21.60;1.00;;;;;;5094209;28;20074;-77
2021/09/18 11:15:43;;;;;;;;;;;21.60;1.00;;;;;;5094749;28;20036;-77
2021/09/18 11:18:13;;;;;;;5.68;3.88;;;21.70;1.00;;;;;;5093565;28;19914;-77
2021/09/18 11:20:39;;;;;;;4.63;3.40;;;21.80;1.00;;;;;;5094105;28;20040;-78
2021/09/18 11:23:13;;;;;;;3.90;3.50;;;21.70;1.00;;;;;;5092379;28;20032;-80
2021/09/18 11:26:18;;;;;;;5.10;3.47;;;21.80;1.00;;;;;;5094037;28;20047;-79
2021/09/18 11:28:45;;;;;;;4.13;3.22;;;21.60;1.00;;;;;;5097283;28;20055;-79
2021/09/18 11:31:11;;;;;;;5.72;3.63;;;21.60;1.00;;;;;;5095597;28;20059;-79
2021/09/18 11:33:37;;;;;;;5.22;3.80;;;21.60;1.00;;;;;;5096226;28;20039;-79
2021/09/18 11:36:03;;;;;;;3.97;3.40;;;21.60;1.00;;;;;;5097228;28;20039;-80
2021/09/18 11:38:32;;;;;;;4.03;3.38;;;21.60;1.00;;;;;;5095967;28;20117;-79
2021/09/18 11:41:14;;;;;;;4.25;3.25;;;21.60;1.00;;;;;;5096735;28;20055;-79
2021/09/18 11:43:42;;;;;;;4.15;3.75;;;21.60;1.00;;;;;;5096036;28;20070;-79
2021/09/18 11:46:12;;;;;;;6.80;4.03;;;21.70;1.00;;;;;;5095955;28;20127;-80
2021/09/18 11:49:22;;;;;;;5.03;4.10;;;21.80;1.00;;;;;;5096392;28;20048;-79
2021/09/18 11:52:25;;;;;;;4.32;3.33;;;21.70;1.00;;;;;;5095388;28;20038;-78
2021/09/18 11:54:56;;;;;;;3.63;3.33;;;22.10;1.00;;;;;;5095703;28;20036;-79
2021/09/18 11:57:24;;;;;;;;;;;22.50;1.00;;;;;;5097771;28;20040;-77
2021/09/18 11:59:50;;;;;;;3.95;3.47;;;22.50;1.00;;;;;;5096867;28;19935;-78
2021/09/18 12:02:30;;;;;;;7.00;3.30;;;22.50;1.00;;;;;;5095643;28;20036;-77
2021/09/18 12:04:56;;;;;;;3.30;2.95;;;22.20;1.00;;;;;;5095879;28;20517;-81
2021/09/18 12:07:22;;;;;;;8.48;3.45;;;22.10;1.00;;;;;;5096950;28;20044;-82
2021/09/18 12:09:48;;;;;;;3.58;3.28;;;21.90;1.00;;;;;;5095651;28;20036;-82
2021/09/18 12:12:14;;;;;;;4.13;3.30;;;21.80;1.00;;;;;;5096573;28;20039;-81
2021/09/18 12:14:40;;;;;;;4.63;3.92;;;21.80;1.00;;;;;;5095589;28;20450;-83
2021/09/18 12:17:17;;;;;;;3.75;2.92;;;21.80;1.00;;;;;;5095688;28;20068;-83
2021/09/18 12:19:44;;;;;;;4.45;3.45;;;22.10;1.00;;;;;;5093739;28;20032;-84
2021/09/18 12:22:12;;;;;;;4.28;3.40;;;22.30;1.00;;;;;;5093314;28;20032;-81
2021/09/18 12:24:41;;;;;;;5.38;3.78;;;22.50;1.00;;;;;;5094126;28;20055;-82
2021/09/18 12:27:34;;;;;;;3.28;2.97;;;22.80;1.00;;;;;;5094729;28;20048;-83
2021/09/18 12:30:15;;;;;;;8.15;3.80;;;22.70;1.00;;;;;;5095477;28;20032;-81
2021/09/18 12:32:41;;;;;;;3.47;3.17;;;22.80;1.00;;;;;;5094523;28;20036;-83
2021/09/18 12:35:10;;;;;;;3.70;3.20;;;22.80;1.00;;;;;;5096040;28;20040;-84
2021/09/18 12:37:43;;;;;;;3.80;3.47;;;22.70;1.00;;;;;;5094952;28;20036;-84
2021/09/18 12:40:19;;;;;;;4.20;3.83;;;22.60;1.00;;;;;;5095892;28;20372;-83
2021/09/18 12:43:08;;;;;;;45.63;40.10;;;22.20;1.00;;;;;;5096288;28;20195;-80
2021/09/18 12:45:34;;;;;;;9.38;5.05;;;22.00;1.00;;;;;;5095740;28;20032;-76
2021/09/18 12:48:18;;;;;;;4.57;3.92;;;22.00;1.00;;;;;;5096158;28;20044;-80
2021/09/18 12:50:59;;;;;;;4.53;3.70;;;22.00;1.00;;;;;;5096756;28;20036;-81
2021/09/18 12:53:28;;;;;;;8.75;4.68;;;21.80;1.00;;;;;;5096434;28;20047;-80
2021/09/18 12:56:32;;;;;;;4.40;3.97;;;21.70;1.00;;;;;;5096020;28;20036;-80
2021/09/18 12:59:06;;;;;;;6.82;4.55;;;21.60;1.00;;;;;;5083054;28;20570;-80
2021/09/18 13:01:38;;;;;;;4.90;4.32;;;21.60;1.00;;;;;;5094923;28;20038;-81
2021/09/18 13:04:19;;;;;;;6.88;4.68;;;21.60;1.00;;;;;;5094673;28;20036;-80